createdAt,value
2023-02-07T06:05:11.882Z,7.15
2023-02-07T06:08:15.835Z,6.72
2023-02-07T06:11:18.999Z,9.02
2023-02-07T06:14:22.287Z,9.10
2023-02-07T06:17:25.791Z,4.97
2023-02-07T06:20:35.614Z,8.95
2023-02-07T06:23:39.583Z,8.55
2023-02-07T06:26:46.960Z,7.50
2023-02-07T06:29:54.374Z,8.00
2023-02-07T06:32:57.612Z,8.10
2023-02-07T06:36:02.305Z,5.82
2023-02-07T06:39:06.183Z,8.57
2023-02-07T06:42:10.938Z,6.63
2023-02-07T06:45:14.629Z,7.67
2023-02-07T06:48:17.868Z,9.87
2023-02-07T06:51:22.620Z,8.15
2023-02-07T06:54:26.038Z,7.05
2023-02-07T06:57:29.265Z,9.60
2023-02-07T07:00:32.751Z,7.10
2023-02-07T07:03:36.279Z,8.13
2023-02-07T07:06:41.059Z,8.52
2023-02-07T07:09:44.523Z,8.75
2023-02-07T07:12:50.911Z,7.97
2023-02-07T07:15:54.154Z,10.03
2023-02-07T07:18:57.432Z,8.50
2023-02-07T07:22:01.984Z,7.88
2023-02-07T07:25:05.680Z,7.07
2023-02-07T07:28:13.967Z,8.38
2023-02-07T07:31:17.549Z,7.80
2023-02-07T07:34:23.883Z,8.83
2023-02-07T07:37:28.525Z,5.88
2023-02-07T07:40:32.908Z,6.90
2023-02-07T07:43:44.742Z,7.72
2023-02-07T07:46:50.555Z,8.03
2023-02-07T07:49:53.656Z,7.30
2023-02-07T07:52:58.245Z,8.15
2023-02-07T07:56:03.997Z,8.80
2023-02-07T07:59:12.161Z,8.07
2023-02-07T08:02:24.522Z,6.87
2023-02-07T08:05:27.858Z,7.43
2023-02-07T08:08:32.625Z,8.77
2023-02-07T08:11:38.292Z,9.00
2023-02-07T08:14:41.640Z,7.88
2023-02-07T08:17:46.870Z,7.10
2023-02-07T08:20:50.685Z,8.50
2023-02-07T08:23:55.637Z,7.35
2023-02-07T08:26:58.828Z,4.93
2023-02-07T08:30:03.391Z,7.85
2023-02-07T08:33:13.149Z,7.80
2023-02-07T08:36:19.467Z,7.40
2023-02-07T08:39:30.612Z,7.45
2023-02-07T08:42:34.505Z,7.78
2023-02-07T08:45:38.120Z,7.03
2023-02-07T08:48:41.379Z,6.80
2023-02-07T08:51:50.631Z,7.70
2023-02-07T08:55:00.935Z,7.57
2023-02-07T08:58:04.404Z,6.65
2023-02-07T09:01:11.541Z,5.43
2023-02-07T09:04:21.567Z,6.23
2023-02-07T09:07:26.468Z,6.97
2023-02-07T09:10:32.015Z,7.28
2023-02-07T09:13:36.565Z,6.63
2023-02-07T09:16:39.766Z,7.15
2023-02-07T09:19:43.087Z,4.83
2023-02-07T09:23:03.220Z,8.20
2023-02-07T09:26:09.623Z,7.32
2023-02-07T09:29:13.324Z,6.88
2023-02-07T09:32:17.034Z,4.78
2023-02-07T09:35:20.300Z,5.67
2023-02-07T09:38:25.710Z,8.20
2023-02-07T09:41:40.365Z,6.45
2023-02-07T09:44:55.674Z,5.95
2023-02-07T09:48:11.003Z,4.85
2023-02-07T09:51:17.827Z,6.30
2023-02-07T09:54:26.661Z,6.60
2023-02-07T09:57:37.833Z,6.63
2023-02-07T10:00:44.182Z,6.00
2023-02-07T10:03:56.940Z,7.50
2023-02-07T10:07:18.432Z,6.57
2023-02-07T10:10:32.654Z,3.60
2023-02-07T10:14:25.086Z,6.80
2023-02-07T10:17:50.801Z,6.75
2023-02-07T10:21:02.465Z,6.68
2023-02-07T10:24:26.703Z,5.83
2023-02-07T10:27:44.068Z,4.30
2023-02-07T10:30:53.513Z,5.25
2023-02-07T10:34:03.912Z,5.03
2023-02-07T10:37:23.650Z,4.72
2023-02-07T10:40:33.645Z,4.60
2023-02-07T10:43:38.340Z,5.80
2023-02-07T10:46:44.217Z,5.13
2023-02-07T10:50:04.182Z,4.88
2023-02-07T10:53:46.026Z,5.93
2023-02-07T10:57:02.423Z,6.00
2023-02-07T11:00:32.631Z,5.80
2023-02-07T11:03:42.719Z,7.40
2023-02-07T11:06:47.882Z,5.78
2023-02-07T11:09:58.466Z,5.25
2023-02-07T11:13:34.062Z,4.53
2023-02-07T11:16:37.874Z,6.03
2023-02-07T11:19:41.115Z,4.18
2023-02-07T11:22:46.045Z,6.28
2023-02-07T11:25:49.831Z,6.63
2023-02-07T11:28:54.753Z,5.00
2023-02-07T11:32:01.119Z,7.10
2023-02-07T11:35:09.355Z,4.97
2023-02-07T11:38:16.331Z,5.75
2023-02-07T11:41:21.316Z,3.90
2023-02-07T11:44:29.704Z,5.00
2023-02-07T11:47:38.477Z,4.50
2023-02-07T11:50:56.996Z,4.40
2023-02-07T11:54:07.258Z,4.35
2023-02-07T11:57:15.624Z,4.90
2023-02-07T12:00:24.912Z,5.57
2023-02-07T12:03:29.886Z,5.60
2023-02-07T12:06:40.840Z,5.40
2023-02-07T12:09:50.415Z,5.65
2023-02-07T12:12:59.514Z,4.90
2023-02-07T12:16:08.449Z,4.97
2023-02-07T12:19:17.935Z,4.37
2023-02-07T12:22:24.812Z,4.28
2023-02-07T12:25:34.376Z,5.82
2023-02-07T12:28:45.139Z,6.20
2023-02-07T12:32:03.273Z,6.20
2023-02-07T12:35:17.025Z,5.63
2023-02-07T12:38:26.649Z,4.88
2023-02-07T12:41:38.018Z,5.00
2023-02-07T12:44:50.600Z,6.13
2023-02-07T12:48:05.884Z,5.53
2023-02-07T12:51:18.802Z,6.03
2023-02-07T12:54:37.477Z,4.25
2023-02-07T12:57:48.694Z,6.03
2023-02-07T13:01:00.979Z,5.40
2023-02-07T13:04:37.379Z,3.73
2023-02-07T13:07:52.079Z,4.07
2023-02-07T13:11:09.258Z,3.95
2023-02-07T13:14:37.783Z,4.28
2023-02-07T13:17:50.781Z,4.68
2023-02-07T13:21:06.453Z,3.73
2023-02-07T13:24:16.292Z,4.20
2023-02-07T13:27:22.287Z,5.45
2023-02-07T13:30:30.908Z,6.80
2023-02-07T13:33:36.684Z,5.28
2023-02-07T13:36:45.193Z,5.97
2023-02-07T13:40:13.214Z,5.80
2023-02-07T13:43:23.843Z,5.07
2023-02-07T13:46:59.331Z,5.95
2023-02-07T13:50:17.335Z,6.80
2023-02-07T13:53:47.817Z,6.67
2023-02-07T13:57:15.689Z,6.10
2023-02-07T14:00:20.669Z,5.55
2023-02-07T14:03:29.069Z,5.85
2023-02-07T14:06:37.524Z,4.88
2023-02-07T14:09:46.826Z,4.40
2023-02-07T14:12:50.619Z,5.10
2023-02-07T14:15:57.411Z,4.70
2023-02-07T14:19:00.790Z,4.55
2023-02-07T14:22:17.054Z,5.00
2023-02-07T14:25:24.131Z,5.17
2023-02-07T14:28:33.432Z,4.70
2023-02-07T14:31:37.021Z,4.90
2023-02-07T14:35:05.887Z,4.00
2023-02-07T14:38:26.676Z,4.85
2023-02-07T14:41:32.431Z,5.07
2023-02-07T14:44:37.961Z,5.43
2023-02-07T14:47:41.158Z,4.35
2023-02-07T14:50:53.821Z,5.47
2023-02-07T14:54:04.294Z,5.32
2023-02-07T14:57:13.157Z,6.23
2023-02-07T15:00:26.885Z,4.63
2023-02-07T15:03:33.329Z,5.15
2023-02-07T15:06:43.293Z,5.10
2023-02-07T15:09:47.976Z,4.70
2023-02-07T15:12:52.909Z,5.43
2023-02-07T15:16:00.103Z,5.50
2023-02-07T15:19:07.566Z,4.22
2023-02-07T15:22:24.932Z,4.15
2023-02-07T15:25:31.465Z,4.30
2023-02-07T15:28:36.513Z,4.60
2023-02-07T15:31:44.219Z,4.23
2023-02-07T15:34:48.056Z,4.82
2023-02-07T15:37:51.838Z,4.60
2023-02-07T15:40:56.625Z,5.47
2023-02-07T15:44:01.906Z,4.87
2023-02-07T15:47:33.279Z,5.27
2023-02-07T15:50:55.262Z,5.40
2023-02-07T15:54:01.784Z,5.80
2023-02-07T15:57:12.743Z,5.82
2023-02-07T16:00:20.443Z,6.07
2023-02-07T16:03:29.095Z,4.63
2023-02-07T16:06:32.961Z,6.20
2023-02-07T16:09:41.326Z,5.72
2023-02-07T16:13:06.255Z,6.28
2023-02-07T16:16:12.279Z,6.33
2023-02-07T16:19:18.633Z,6.70
2023-02-07T16:22:26.261Z,6.63
2023-02-07T16:25:32.770Z,6.80
2023-02-07T16:28:37.479Z,5.97
2023-02-07T16:35:45.205Z,7.13
2023-02-07T16:38:50.133Z,7.95
2023-02-07T16:41:57.042Z,7.55
